sensor_id;sensor_type;location;lat;lon;timestamp;P1;durP1;ratioP1;P2;durP2;ratioP2
36833;SDS011;48003;52.084;5.224;2023-05-07T00:00:57;18.8;;;15.4;;
36833;SDS011;48003;52.084;5.224;2023-05-07T00:02:34;19.61;;;16.5;;
36833;SDS011;48003;52.084;5.224;2023-05-07T00:07:23;18.91;;;16.4;;
36833;SDS011;48003;52.084;5.224;2023-05-07T00:08:59;24.2;;;17.0;;
36833;SDS011;48003;52.084;5.224;2023-05-07T00:12:11;19.3;;;16.3;;
36833;SDS011;48003;52.084;5.224;2023-05-07T00:13:47;17.0;;;15.2;;
36833;SDS011;48003;52.084;5.224;2023-05-07T00:15:25;17.2;;;14.6;;
36833;SDS011;48003;52.084;5.224;2023-05-07T00:17:02;17.91;;;14.5;;
36833;SDS011;48003;52.084;5.224;2023-05-07T00:20:15;17.3;;;14.7;;
36833;SDS011;48003;52.084;5.224;2023-05-07T00:21:51;17.11;;;13.9;;
36833;SDS011;48003;52.084;5.224;2023-05-07T00:23:27;18.3;;;14.3;;
36833;SDS011;48003;52.084;5.224;2023-05-07T00:26:41;16.9;;;13.5;;
36833;SDS011;48003;52.084;5.224;2023-05-07T00:28:18;13.9;;;12.3;;
36833;SDS011;48003;52.084;5.224;2023-05-07T00:29:55;14.3;;;11.3;;
36833;SDS011;48003;52.084;5.224;2023-05-07T00:33:08;15.2;;;12.0;;
36833;SDS011;48003;52.084;5.224;2023-05-07T00:34:44;12.6;;;11.2;;
36833;SDS011;48003;52.084;5.224;2023-05-07T00:36:21;14.7;;;12.0;;
36833;SDS011;48003;52.084;5.224;2023-05-07T00:37:57;14.2;;;11.7;;
36833;SDS011;48003;52.084;5.224;2023-05-07T00:41:11;14.4;;;12.0;;
36833;SDS011;48003;52.084;5.224;2023-05-07T00:42:48;14.5;;;11.5;;
36833;SDS011;48003;52.084;5.224;2023-05-07T00:44:24;14.6;;;11.6;;
36833;SDS011;48003;52.084;5.224;2023-05-07T00:47:37;14.6;;;11.6;;
36833;SDS011;48003;52.084;5.224;2023-05-07T00:49:14;14.2;;;11.1;;
36833;SDS011;48003;52.084;5.224;2023-05-07T00:50:51;12.4;;;10.4;;
36833;SDS011;48003;52.084;5.224;2023-05-07T00:54:06;13.5;;;11.2;;
36833;SDS011;48003;52.084;5.224;2023-05-07T00:55:43;13.4;;;10.1;;
36833;SDS011;48003;52.084;5.224;2023-05-07T00:57:19;12.8;;;10.9;;
36833;SDS011;48003;52.084;5.224;2023-05-07T00:58:57;12.8;;;10.9;;
36833;SDS011;48003;52.084;5.224;2023-05-07T01:02:10;12.9;;;10.6;;
36833;SDS011;48003;52.084;5.224;2023-05-07T01:03:46;13.9;;;10.5;;
36833;SDS011;48003;52.084;5.224;2023-05-07T01:05:23;14.1;;;10.4;;
36833;SDS011;48003;52.084;5.224;2023-05-07T01:08:39;11.5;;;10.3;;
36833;SDS011;48003;52.084;5.224;2023-05-07T01:10:17;12.3;;;10.5;;
36833;SDS011;48003;52.084;5.224;2023-05-07T01:11:54;12.8;;;10.21;;
36833;SDS011;48003;52.084;5.224;2023-05-07T01:13:32;12.9;;;10.1;;
36833;SDS011;48003;52.084;5.224;2023-05-07T01:16:48;10.4;;;9.1;;
36833;SDS011;48003;52.084;5.224;2023-05-07T01:18:25;11.2;;;9.4;;
36833;SDS011;48003;52.084;5.224;2023-05-07T01:20:02;11.9;;;9.6;;
36833;SDS011;48003;52.084;5.224;2023-05-07T01:23:22;12.5;;;9.71;;
36833;SDS011;48003;52.084;5.224;2023-05-07T01:24:59;13.4;;;9.9;;
36833;SDS011;48003;52.084;5.224;2023-05-07T01:26:36;10.9;;;9.1;;
36833;SDS011;48003;52.084;5.224;2023-05-07T01:28:13;11.1;;;9.31;;
36833;SDS011;48003;52.084;5.224;2023-05-07T01:31:26;11.0;;;8.81;;
36833;SDS011;48003;52.084;5.224;2023-05-07T01:33:04;12.3;;;9.0;;
36833;SDS011;48003;52.084;5.224;2023-05-07T01:34:44;10.6;;;9.0;;
36833;SDS011;48003;52.084;5.224;2023-05-07T01:38:02;12.1;;;9.4;;
36833;SDS011;48003;52.084;5.224;2023-05-07T01:39:39;12.2;;;9.21;;
36833;SDS011;48003;52.084;5.224;2023-05-07T01:41:17;10.5;;;9.0;;
36833;SDS011;48003;52.084;5.224;2023-05-07T01:42:54;12.7;;;9.1;;
36833;SDS011;48003;52.084;5.224;2023-05-07T01:46:06;11.1;;;9.1;;
36833;SDS011;48003;52.084;5.224;2023-05-07T01:47:44;12.0;;;9.1;;
36833;SDS011;48003;52.084;5.224;2023-05-07T01:49:20;11.6;;;9.21;;
36833;SDS011;48003;52.084;5.224;2023-05-07T01:52:34;12.1;;;10.1;;
36833;SDS011;48003;52.084;5.224;2023-05-07T01:54:12;13.5;;;9.4;;
36833;SDS011;48003;52.084;5.224;2023-05-07T01:55:48;13.1;;;10.1;;
36833;SDS011;48003;52.084;5.224;2023-05-07T01:57:24;12.4;;;10.3;;
36833;SDS011;48003;52.084;5.224;2023-05-07T02:00:36;12.8;;;10.21;;
36833;SDS011;48003;52.084;5.224;2023-05-07T02:02:13;11.9;;;10.3;;
36833;SDS011;48003;52.084;5.224;2023-05-07T02:03:50;10.6;;;9.31;;
36833;SDS011;48003;52.084;5.224;2023-05-07T02:07:02;9.71;;;8.5;;
36833;SDS011;48003;52.084;5.224;2023-05-07T02:08:38;10.6;;;8.6;;
36833;SDS011;48003;52.084;5.224;2023-05-07T02:10:14;10.1;;;8.71;;
36833;SDS011;48003;52.084;5.224;2023-05-07T02:13:28;11.8;;;9.1;;
36833;SDS011;48003;52.084;5.224;2023-05-07T02:15:06;12.2;;;9.31;;
36833;SDS011;48003;52.084;5.224;2023-05-07T02:16:42;11.8;;;9.5;;
36833;SDS011;48003;52.084;5.224;2023-05-07T02:18:19;12.9;;;9.71;;
36833;SDS011;48003;52.084;5.224;2023-05-07T02:21:31;12.3;;;10.4;;
36833;SDS011;48003;52.084;5.224;2023-05-07T02:23:07;12.7;;;10.1;;
36833;SDS011;48003;52.084;5.224;2023-05-07T02:24:44;10.7;;;8.9;;
36833;SDS011;48003;52.084;5.224;2023-05-07T02:27:56;12.5;;;9.1;;
36833;SDS011;48003;52.084;5.224;2023-05-07T02:29:33;11.0;;;9.81;;
36833;SDS011;48003;52.084;5.224;2023-05-07T02:31:09;11.4;;;9.1;;
36833;SDS011;48003;52.084;5.224;2023-05-07T02:34:21;12.9;;;9.21;;
36833;SDS011;48003;52.084;5.224;2023-05-07T02:36:04;12.0;;;9.5;;
36833;SDS011;48003;52.084;5.224;2023-05-07T02:37:41;11.8;;;9.31;;
36833;SDS011;48003;52.084;5.224;2023-05-07T02:39:17;10.9;;;9.5;;
36833;SDS011;48003;52.084;5.224;2023-05-07T02:42:31;11.2;;;9.81;;
36833;SDS011;48003;52.084;5.224;2023-05-07T02:44:07;12.4;;;10.5;;
36833;SDS011;48003;52.084;5.224;2023-05-07T02:45:44;11.4;;;9.4;;
36833;SDS011;48003;52.084;5.224;2023-05-07T02:48:56;11.6;;;9.21;;
36833;SDS011;48003;52.084;5.224;2023-05-07T02:50:32;12.1;;;9.6;;
36833;SDS011;48003;52.084;5.224;2023-05-07T02:52:09;11.8;;;10.1;;
36833;SDS011;48003;52.084;5.224;2023-05-07T02:55:21;13.6;;;10.8;;
36833;SDS011;48003;52.084;5.224;2023-05-07T02:56:57;14.0;;;11.2;;
36833;SDS011;48003;52.084;5.224;2023-05-07T02:58:33;12.4;;;10.8;;
36833;SDS011;48003;52.084;5.224;2023-05-07T03:00:10;13.6;;;10.7;;
36833;SDS011;48003;52.084;5.224;2023-05-07T03:03:24;14.4;;;11.3;;
36833;SDS011;48003;52.084;5.224;2023-05-07T03:05:00;13.0;;;11.0;;
36833;SDS011;48003;52.084;5.224;2023-05-07T03:06:36;15.3;;;11.2;;
36833;SDS011;48003;52.084;5.224;2023-05-07T03:09:48;12.9;;;11.0;;
36833;SDS011;48003;52.084;5.224;2023-05-07T03:11:25;13.7;;;11.4;;
36833;SDS011;48003;52.084;5.224;2023-05-07T03:13:01;14.1;;;11.7;;
36833;SDS011;48003;52.084;5.224;2023-05-07T03:16:14;13.6;;;11.8;;
36833;SDS011;48003;52.084;5.224;2023-05-07T03:17:51;14.0;;;11.8;;
36833;SDS011;48003;52.084;5.224;2023-05-07T03:19:27;13.8;;;11.3;;
36833;SDS011;48003;52.084;5.224;2023-05-07T03:21:03;14.6;;;11.9;;
36833;SDS011;48003;52.084;5.224;2023-05-07T03:24:17;14.7;;;12.1;;
36833;SDS011;48003;52.084;5.224;2023-05-07T03:25:53;14.8;;;12.0;;
36833;SDS011;48003;52.084;5.224;2023-05-07T03:27:29;15.6;;;12.3;;
36833;SDS011;48003;52.084;5.224;2023-05-07T03:30:41;14.7;;;12.3;;
36833;SDS011;48003;52.084;5.224;2023-05-07T03:32:17;14.3;;;12.8;;
36833;SDS011;48003;52.084;5.224;2023-05-07T03:33:54;14.3;;;12.1;;
36833;SDS011;48003;52.084;5.224;2023-05-07T03:37:09;13.4;;;11.4;;
36833;SDS011;48003;52.084;5.224;2023-05-07T03:38:45;14.5;;;12.4;;
36833;SDS011;48003;52.084;5.224;2023-05-07T03:40:21;14.5;;;12.4;;
36833;SDS011;48003;52.084;5.224;2023-05-07T03:43:34;13.2;;;11.8;;
36833;SDS011;48003;52.084;5.224;2023-05-07T03:45:11;13.3;;;11.9;;
36833;SDS011;48003;52.084;5.224;2023-05-07T03:46:47;13.5;;;11.4;;
36833;SDS011;48003;52.084;5.224;2023-05-07T03:48:23;18.2;;;13.5;;
36833;SDS011;48003;52.084;5.224;2023-05-07T03:51:35;15.2;;;12.9;;
36833;SDS011;48003;52.084;5.224;2023-05-07T03:53:12;15.0;;;13.2;;
36833;SDS011;48003;52.084;5.224;2023-05-07T03:54:48;15.5;;;13.5;;
36833;SDS011;48003;52.084;5.224;2023-05-07T03:58:01;15.7;;;14.0;;
36833;SDS011;48003;52.084;5.224;2023-05-07T03:59:37;16.8;;;14.9;;
36833;SDS011;48003;52.084;5.224;2023-05-07T04:01:13;17.7;;;15.6;;
36833;SDS011;48003;52.084;5.224;2023-05-07T04:04:25;18.3;;;16.11;;
36833;SDS011;48003;52.084;5.224;2023-05-07T04:06:01;20.0;;;16.8;;
36833;SDS011;48003;52.084;5.224;2023-05-07T04:07:38;17.91;;;15.2;;
36833;SDS011;48003;52.084;5.224;2023-05-07T04:09:15;19.2;;;16.0;;
36833;SDS011;48003;52.084;5.224;2023-05-07T04:12:31;18.61;;;16.61;;
36833;SDS011;48003;52.084;5.224;2023-05-07T04:14:07;19.3;;;17.0;;
36833;SDS011;48003;52.084;5.224;2023-05-07T04:15:43;21.0;;;17.61;;
36833;SDS011;48003;52.084;5.224;2023-05-07T04:18:55;20.11;;;18.0;;
36833;SDS011;48003;52.084;5.224;2023-05-07T04:22:11;20.0;;;17.91;;
36833;SDS011;48003;52.084;5.224;2023-05-07T04:25:25;21.2;;;18.8;;
36833;SDS011;48003;52.084;5.224;2023-05-07T04:27:01;21.1;;;18.61;;
36833;SDS011;48003;52.084;5.224;2023-05-07T04:28:37;20.7;;;18.41;;
36833;SDS011;48003;52.084;5.224;2023-05-07T04:30:14;22.3;;;19.5;;
36833;SDS011;48003;52.084;5.224;2023-05-07T04:33:27;22.4;;;20.0;;
36833;SDS011;48003;52.084;5.224;2023-05-07T04:35:03;20.9;;;17.91;;
36833;SDS011;48003;52.084;5.224;2023-05-07T04:36:40;21.4;;;18.0;;
36833;SDS011;48003;52.084;5.224;2023-05-07T04:39:53;21.7;;;19.3;;
36833;SDS011;48003;52.084;5.224;2023-05-07T04:41:29;21.3;;;19.11;;
36833;SDS011;48003;52.084;5.224;2023-05-07T04:43:05;24.8;;;19.5;;
36833;SDS011;48003;52.084;5.224;2023-05-07T04:46:20;24.1;;;20.41;;
36833;SDS011;48003;52.084;5.224;2023-05-07T04:47:56;21.6;;;19.3;;
36833;SDS011;48003;52.084;5.224;2023-05-07T04:49:32;21.4;;;19.11;;
36833;SDS011;48003;52.084;5.224;2023-05-07T04:51:08;22.7;;;19.61;;
36833;SDS011;48003;52.084;5.224;2023-05-07T04:54:20;22.6;;;19.0;;
36833;SDS011;48003;52.084;5.224;2023-05-07T04:55:56;22.5;;;19.8;;
36833;SDS011;48003;52.084;5.224;2023-05-07T04:57:33;21.4;;;19.11;;
36833;SDS011;48003;52.084;5.224;2023-05-07T05:00:46;22.8;;;20.3;;
36833;SDS011;48003;52.084;5.224;2023-05-07T05:02:22;21.8;;;19.5;;
36833;SDS011;48003;52.084;5.224;2023-05-07T05:03:58;24.4;;;20.6;;
36833;SDS011;48003;52.084;5.224;2023-05-07T05:07:10;25.6;;;20.9;;
36833;SDS011;48003;52.084;5.224;2023-05-07T05:08:47;23.5;;;20.3;;
36833;SDS011;48003;52.084;5.224;2023-05-07T05:10:22;22.0;;;19.61;;
36833;SDS011;48003;52.084;5.224;2023-05-07T05:11:59;21.7;;;19.41;;
36833;SDS011;48003;52.084;5.224;2023-05-07T05:15:11;23.3;;;19.8;;
36833;SDS011;48003;52.084;5.224;2023-05-07T05:16:48;21.0;;;18.61;;
36833;SDS011;48003;52.084;5.224;2023-05-07T05:18:25;22.0;;;19.61;;
36833;SDS011;48003;52.084;5.224;2023-05-07T05:21:37;21.9;;;19.61;;
36833;SDS011;48003;52.084;5.224;2023-05-07T05:23:13;22.3;;;19.91;;
36833;SDS011;48003;52.084;5.224;2023-05-07T05:24:49;20.5;;;18.41;;
36833;SDS011;48003;52.084;5.224;2023-05-07T05:28:01;23.7;;;19.41;;
36833;SDS011;48003;52.084;5.224;2023-05-07T05:29:37;22.0;;;19.7;;
36833;SDS011;48003;52.084;5.224;2023-05-07T05:31:13;22.2;;;19.8;;
36833;SDS011;48003;52.084;5.224;2023-05-07T05:34:26;21.4;;;17.8;;
36833;SDS011;48003;52.084;5.224;2023-05-07T05:36:02;20.41;;;18.2;;
36833;SDS011;48003;52.084;5.224;2023-05-07T05:37:39;21.3;;;18.41;;
36833;SDS011;48003;52.084;5.224;2023-05-07T05:39:15;17.41;;;15.6;;
36833;SDS011;48003;52.084;5.224;2023-05-07T05:42:29;17.41;;;15.6;;
36833;SDS011;48003;52.084;5.224;2023-05-07T05:44:06;20.3;;;18.2;;
36833;SDS011;48003;52.084;5.224;2023-05-07T05:45:42;21.2;;;18.91;;
36833;SDS011;48003;52.084;5.224;2023-05-07T05:48:54;21.8;;;19.0;;
36833;SDS011;48003;52.084;5.224;2023-05-07T05:50:30;23.7;;;20.0;;
36833;SDS011;48003;52.084;5.224;2023-05-07T05:52:06;22.5;;;19.3;;
36833;SDS011;48003;52.084;5.224;2023-05-07T05:55:19;22.9;;;19.61;;
36833;SDS011;48003;52.084;5.224;2023-05-07T05:56:56;21.3;;;18.5;;
36833;SDS011;48003;52.084;5.224;2023-05-07T05:58:33;21.9;;;18.3;;
36833;SDS011;48003;52.084;5.224;2023-05-07T06:00:10;21.3;;;17.8;;
36833;SDS011;48003;52.084;5.224;2023-05-07T06:03:22;21.3;;;17.8;;
36833;SDS011;48003;52.084;5.224;2023-05-07T06:04:59;21.6;;;17.8;;
36833;SDS011;48003;52.084;5.224;2023-05-07T06:06:35;19.3;;;17.0;;
36833;SDS011;48003;52.084;5.224;2023-05-07T06:09:47;20.6;;;17.41;;
36833;SDS011;48003;52.084;5.224;2023-05-07T06:11:23;21.1;;;17.8;;
36833;SDS011;48003;52.084;5.224;2023-05-07T06:12:59;21.0;;;17.91;;
36833;SDS011;48003;52.084;5.224;2023-05-07T06:16:12;22.4;;;19.3;;
36833;SDS011;48003;52.084;5.224;2023-05-07T06:17:49;19.91;;;17.5;;
36833;SDS011;48003;52.084;5.224;2023-05-07T06:19:25;19.91;;;17.0;;
36833;SDS011;48003;52.084;5.224;2023-05-07T06:21:01;22.5;;;17.0;;
36833;SDS011;48003;52.084;5.224;2023-05-07T06:24:14;19.8;;;16.9;;
36833;SDS011;48003;52.084;5.224;2023-05-07T06:25:50;20.7;;;16.8;;
36833;SDS011;48003;52.084;5.224;2023-05-07T06:30:40;21.2;;;16.8;;
36833;SDS011;48003;52.084;5.224;2023-05-07T06:32:16;17.7;;;15.1;;
36833;SDS011;48003;52.084;5.224;2023-05-07T06:33:55;18.91;;;15.8;;
36833;SDS011;48003;52.084;5.224;2023-05-07T06:37:07;17.61;;;15.3;;
36833;SDS011;48003;52.084;5.224;2023-05-07T06:38:43;16.7;;;14.9;;
36833;SDS011;48003;52.084;5.224;2023-05-07T06:40:19;18.2;;;16.11;;
36833;SDS011;48003;52.084;5.224;2023-05-07T06:41:55;20.6;;;16.4;;
36833;SDS011;48003;52.084;5.224;2023-05-07T06:45:09;19.41;;;15.0;;
36833;SDS011;48003;52.084;5.224;2023-05-07T06:46:46;19.2;;;16.2;;
36833;SDS011;48003;52.084;5.224;2023-05-07T06:48:22;21.0;;;16.2;;
36833;SDS011;48003;52.084;5.224;2023-05-07T06:51:34;19.61;;;17.0;;
36833;SDS011;48003;52.084;5.224;2023-05-07T06:53:10;20.3;;;16.9;;
36833;SDS011;48003;52.084;5.224;2023-05-07T06:54:46;22.4;;;16.9;;
36833;SDS011;48003;52.084;5.224;2023-05-07T06:57:59;21.1;;;16.4;;
36833;SDS011;48003;52.084;5.224;2023-05-07T06:59:36;22.3;;;17.7;;
36833;SDS011;48003;52.084;5.224;2023-05-07T07:01:12;20.0;;;16.5;;
36833;SDS011;48003;52.084;5.224;2023-05-07T07:02:48;23.1;;;17.3;;
36833;SDS011;48003;52.084;5.224;2023-05-07T07:06:00;21.5;;;18.8;;
36833;SDS011;48003;52.084;5.224;2023-05-07T07:07:37;21.0;;;18.61;;
36833;SDS011;48003;52.084;5.224;2023-05-07T07:09:13;20.3;;;16.7;;
36833;SDS011;48003;52.084;5.224;2023-05-07T07:12:25;20.5;;;16.4;;
36833;SDS011;48003;52.084;5.224;2023-05-07T07:14:01;17.61;;;15.4;;
36833;SDS011;48003;52.084;5.224;2023-05-07T07:15:37;19.8;;;16.61;;
36833;SDS011;48003;52.084;5.224;2023-05-07T07:18:50;19.61;;;16.61;;
36833;SDS011;48003;52.084;5.224;2023-05-07T07:20:27;20.0;;;16.8;;
36833;SDS011;48003;52.084;5.224;2023-05-07T07:22:03;20.0;;;17.3;;
36833;SDS011;48003;52.084;5.224;2023-05-07T07:25:16;20.8;;;17.2;;
36833;SDS011;48003;52.084;5.224;2023-05-07T07:26:53;21.7;;;17.8;;
36833;SDS011;48003;52.084;5.224;2023-05-07T07:28:29;23.3;;;18.91;;
36833;SDS011;48003;52.084;5.224;2023-05-07T07:30:05;21.1;;;18.11;;
36833;SDS011;48003;52.084;5.224;2023-05-07T07:33:19;20.3;;;17.61;;
36833;SDS011;48003;52.084;5.224;2023-05-07T07:34:55;20.41;;;17.3;;
36833;SDS011;48003;52.084;5.224;2023-05-07T07:36:31;19.2;;;16.11;;
36833;SDS011;48003;52.084;5.224;2023-05-07T07:39:44;19.11;;;17.11;;
36833;SDS011;48003;52.084;5.224;2023-05-07T07:41:20;21.3;;;16.7;;
36833;SDS011;48003;52.084;5.224;2023-05-07T07:42:56;21.3;;;17.5;;
36833;SDS011;48003;52.084;5.224;2023-05-07T07:46:10;21.1;;;17.3;;
36833;SDS011;48003;52.084;5.224;2023-05-07T07:47:48;20.2;;;18.0;;
36833;SDS011;48003;52.084;5.224;2023-05-07T07:49:24;21.7;;;17.61;;
36833;SDS011;48003;52.084;5.224;2023-05-07T07:51:00;21.4;;;17.2;;
36833;SDS011;48003;52.084;5.224;2023-05-07T07:54:14;18.91;;;16.8;;
36833;SDS011;48003;52.084;5.224;2023-05-07T07:55:50;19.91;;;16.61;;
36833;SDS011;48003;52.084;5.224;2023-05-07T07:57:26;19.5;;;17.41;;
36833;SDS011;48003;52.084;5.224;2023-05-07T08:00:39;20.3;;;17.11;;
36833;SDS011;48003;52.084;5.224;2023-05-07T08:02:16;20.7;;;17.5;;
36833;SDS011;48003;52.084;5.224;2023-05-07T08:03:53;20.2;;;18.0;;
36833;SDS011;48003;52.084;5.224;2023-05-07T08:07:06;21.0;;;18.2;;
36833;SDS011;48003;52.084;5.224;2023-05-07T08:08:42;24.7;;;19.41;;
36833;SDS011;48003;52.084;5.224;2023-05-07T08:10:19;21.2;;;18.5;;
36833;SDS011;48003;52.084;5.224;2023-05-07T08:11:56;21.6;;;17.8;;
36833;SDS011;48003;52.084;5.224;2023-05-07T08:15:11;19.0;;;16.7;;
36833;SDS011;48003;52.084;5.224;2023-05-07T08:16:47;19.2;;;15.8;;
36833;SDS011;48003;52.084;5.224;2023-05-07T08:18:23;19.91;;;17.2;;
36833;SDS011;48003;52.084;5.224;2023-05-07T08:21:38;18.7;;;16.3;;
36833;SDS011;48003;52.084;5.224;2023-05-07T08:23:15;17.5;;;15.6;;
36833;SDS011;48003;52.084;5.224;2023-05-07T08:24:51;18.2;;;15.7;;
36833;SDS011;48003;52.084;5.224;2023-05-07T08:28:05;17.7;;;15.4;;
36833;SDS011;48003;52.084;5.224;2023-05-07T08:29:41;17.91;;;15.6;;
36833;SDS011;48003;52.084;5.224;2023-05-07T08:31:17;18.61;;;15.5;;
36833;SDS011;48003;52.084;5.224;2023-05-07T08:32:53;19.91;;;15.7;;
36833;SDS011;48003;52.084;5.224;2023-05-07T08:36:06;18.11;;;16.11;;
36833;SDS011;48003;52.084;5.224;2023-05-07T08:37:42;19.2;;;15.5;;
36833;SDS011;48003;52.084;5.224;2023-05-07T08:39:19;20.2;;;17.11;;
36833;SDS011;48003;52.084;5.224;2023-05-07T08:42:33;19.11;;;17.11;;
36833;SDS011;48003;52.084;5.224;2023-05-07T08:44:12;19.5;;;17.41;;
36833;SDS011;48003;52.084;5.224;2023-05-07T08:45:50;20.11;;;17.91;;
36833;SDS011;48003;52.084;5.224;2023-05-07T08:47:32;20.3;;;16.61;;
36833;SDS011;48003;52.084;5.224;2023-05-07T08:50:52;19.41;;;16.7;;
36833;SDS011;48003;52.084;5.224;2023-05-07T08:52:29;19.0;;;16.4;;
36833;SDS011;48003;52.084;5.224;2023-05-07T08:54:05;18.7;;;16.11;;
36833;SDS011;48003;52.084;5.224;2023-05-07T08:57:22;20.5;;;16.3;;
36833;SDS011;48003;52.084;5.224;2023-05-07T08:58:58;19.91;;;17.3;;
36833;SDS011;48003;52.084;5.224;2023-05-07T09:00:35;19.91;;;17.8;;
36833;SDS011;48003;52.084;5.224;2023-05-07T09:02:13;19.91;;;17.11;;
36833;SDS011;48003;52.084;5.224;2023-05-07T09:05:28;18.91;;;16.4;;
36833;SDS011;48003;52.084;5.224;2023-05-07T09:07:04;17.91;;;14.8;;
36833;SDS011;48003;52.084;5.224;2023-05-07T09:08:41;19.2;;;14.8;;
36833;SDS011;48003;52.084;5.224;2023-05-07T09:10:25;18.2;;;16.3;;
36833;SDS011;48003;52.084;5.224;2023-05-07T09:13:39;18.0;;;15.9;;
36833;SDS011;48003;52.084;5.224;2023-05-07T09:15:15;19.7;;;16.4;;
36833;SDS011;48003;52.084;5.224;2023-05-07T09:16:51;18.41;;;15.8;;
36833;SDS011;48003;52.084;5.224;2023-05-07T09:20:05;17.2;;;15.3;;
36833;SDS011;48003;52.084;5.224;2023-05-07T09:21:43;16.9;;;14.9;;
36833;SDS011;48003;52.084;5.224;2023-05-07T09:23:20;18.11;;;14.8;;
36833;SDS011;48003;52.084;5.224;2023-05-07T09:26:33;20.41;;;15.6;;
36833;SDS011;48003;52.084;5.224;2023-05-07T09:28:10;18.91;;;15.2;;
36833;SDS011;48003;52.084;5.224;2023-05-07T09:29:46;16.7;;;14.3;;
36833;SDS011;48003;52.084;5.224;2023-05-07T09:31:23;16.9;;;14.6;;
36833;SDS011;48003;52.084;5.224;2023-05-07T09:34:40;18.0;;;14.6;;
36833;SDS011;48003;52.084;5.224;2023-05-07T09:36:18;14.5;;;12.6;;
36833;SDS011;48003;52.084;5.224;2023-05-07T09:37:55;14.3;;;12.8;;
36833;SDS011;48003;52.084;5.224;2023-05-07T09:41:18;14.6;;;12.5;;
36833;SDS011;48003;52.084;5.224;2023-05-07T09:42:55;16.0;;;12.8;;
36833;SDS011;48003;52.084;5.224;2023-05-07T09:44:33;13.2;;;10.9;;
36833;SDS011;48003;52.084;5.224;2023-05-07T09:46:11;14.4;;;11.5;;
36833;SDS011;48003;52.084;5.224;2023-05-07T09:49:33;13.1;;;10.5;;
36833;SDS011;48003;52.084;5.224;2023-05-07T09:51:15;13.0;;;9.9;;
36833;SDS011;48003;52.084;5.224;2023-05-07T09:53:05;12.7;;;9.9;;
36833;SDS011;48003;52.084;5.224;2023-05-07T09:54:45;11.8;;;8.71;;
36833;SDS011;48003;52.084;5.224;2023-05-07T09:58:01;12.4;;;10.5;;
36833;SDS011;48003;52.084;5.224;2023-05-07T09:59:40;13.0;;;10.6;;
36833;SDS011;48003;52.084;5.224;2023-05-07T10:01:19;8.9;;;7.9;;
36833;SDS011;48003;52.084;5.224;2023-05-07T10:02:57;11.8;;;7.4;;
36833;SDS011;48003;52.084;5.224;2023-05-07T10:06:12;7.8;;;6.0;;
36833;SDS011;48003;52.084;5.224;2023-05-07T10:07:51;7.4;;;5.6;;
36833;SDS011;48003;52.084;5.224;2023-05-07T10:09:29;7.2;;;5.5;;
36833;SDS011;48003;52.084;5.224;2023-05-07T10:11:06;6.8;;;5.6;;
36833;SDS011;48003;52.084;5.224;2023-05-07T10:14:19;8.0;;;6.2;;
36833;SDS011;48003;52.084;5.224;2023-05-07T10:15:57;8.5;;;6.5;;
36833;SDS011;48003;52.084;5.224;2023-05-07T10:17:34;7.0;;;5.7;;
36833;SDS011;48003;52.084;5.224;2023-05-07T10:20:49;9.4;;;6.7;;
36833;SDS011;48003;52.084;5.224;2023-05-07T10:22:28;9.71;;;6.8;;
36833;SDS011;48003;52.084;5.224;2023-05-07T10:24:13;9.5;;;6.4;;
36833;SDS011;48003;52.084;5.224;2023-05-07T10:25:55;7.1;;;6.4;;
36833;SDS011;48003;52.084;5.224;2023-05-07T10:29:12;9.0;;;6.6;;
36833;SDS011;48003;52.084;5.224;2023-05-07T10:31:04;9.0;;;7.1;;
36833;SDS011;48003;52.084;5.224;2023-05-07T10:33:01;10.3;;;6.8;;
36833;SDS011;48003;52.084;5.224;2023-05-07T10:34:41;12.3;;;9.0;;
36833;SDS011;48003;52.084;5.224;2023-05-07T10:36:21;12.1;;;9.1;;
36833;SDS011;48003;52.084;5.224;2023-05-07T10:39:35;12.0;;;8.2;;
36833;SDS011;48003;52.084;5.224;2023-05-07T10:41:12;9.5;;;7.9;;
36833;SDS011;48003;52.084;5.224;2023-05-07T10:42:53;8.81;;;7.0;;
36833;SDS011;48003;52.084;5.224;2023-05-07T10:46:10;10.1;;;7.2;;
36833;SDS011;48003;52.084;5.224;2023-05-07T10:48:06;9.1;;;6.8;;
36833;SDS011;48003;52.084;5.224;2023-05-07T10:50:51;9.1;;;8.1;;
36833;SDS011;48003;52.084;5.224;2023-05-07T10:53:27;9.71;;;8.71;;
36833;SDS011;48003;52.084;5.224;2023-05-07T10:55:19;9.71;;;7.0;;
36833;SDS011;48003;52.084;5.224;2023-05-07T10:57:46;9.21;;;6.7;;
36833;SDS011;48003;52.084;5.224;2023-05-07T10:59:29;8.81;;;6.3;;
36833;SDS011;48003;52.084;5.224;2023-05-07T11:03:19;11.1;;;7.4;;
36833;SDS011;48003;52.084;5.224;2023-05-07T11:05:28;9.9;;;6.5;;
36833;SDS011;48003;52.084;5.224;2023-05-07T11:07:21;8.71;;;7.7;;
36833;SDS011;48003;52.084;5.224;2023-05-07T11:09:06;8.9;;;6.9;;
36833;SDS011;48003;52.084;5.224;2023-05-07T11:10:50;10.1;;;8.0;;
36833;SDS011;48003;52.084;5.224;2023-05-07T11:13:07;9.21;;;8.2;;
36833;SDS011;48003;52.084;5.224;2023-05-07T11:14:44;8.71;;;7.2;;
36833;SDS011;48003;52.084;5.224;2023-05-07T11:16:23;14.2;;;8.6;;
36833;SDS011;48003;52.084;5.224;2023-05-07T11:19:52;8.81;;;7.7;;
36833;SDS011;48003;52.084;5.224;2023-05-07T11:21:32;10.4;;;8.6;;
36833;SDS011;48003;52.084;5.224;2023-05-07T11:23:39;10.21;;;8.6;;
36833;SDS011;48003;52.084;5.224;2023-05-07T11:25:35;12.3;;;8.81;;
36833;SDS011;48003;52.084;5.224;2023-05-07T11:28:49;10.21;;;8.6;;
36833;SDS011;48003;52.084;5.224;2023-05-07T11:32:04;10.8;;;9.1;;
36833;SDS011;48003;52.084;5.224;2023-05-07T11:33:43;11.4;;;9.5;;
36833;SDS011;48003;52.084;5.224;2023-05-07T11:35:22;13.4;;;10.7;;
36833;SDS011;48003;52.084;5.224;2023-05-07T11:36:59;13.0;;;8.5;;
36833;SDS011;48003;52.084;5.224;2023-05-07T11:40:14;10.21;;;8.81;;
36833;SDS011;48003;52.084;5.224;2023-05-07T11:41:50;11.4;;;9.21;;
36833;SDS011;48003;52.084;5.224;2023-05-07T11:43:26;12.5;;;8.6;;
36833;SDS011;48003;52.084;5.224;2023-05-07T11:46:43;10.5;;;8.4;;
36833;SDS011;48003;52.084;5.224;2023-05-07T11:48:21;9.1;;;7.8;;
36833;SDS011;48003;52.084;5.224;2023-05-07T11:50:02;9.21;;;8.31;;
36833;SDS011;48003;52.084;5.224;2023-05-07T11:51:42;12.7;;;9.21;;
36833;SDS011;48003;52.084;5.224;2023-05-07T11:54:56;11.9;;;8.71;;
36833;SDS011;48003;52.084;5.224;2023-05-07T11:56:35;11.2;;;9.71;;
36833;SDS011;48003;52.084;5.224;2023-05-07T11:58:11;10.21;;;7.9;;
36833;SDS011;48003;52.084;5.224;2023-05-07T11:59:56;12.0;;;8.1;;
36833;SDS011;48003;52.084;5.224;2023-05-07T12:03:11;9.31;;;7.5;;
36833;SDS011;48003;52.084;5.224;2023-05-07T12:04:47;8.5;;;7.1;;
36833;SDS011;48003;52.084;5.224;2023-05-07T12:06:24;10.21;;;8.0;;
36833;SDS011;48003;52.084;5.224;2023-05-07T12:09:36;10.1;;;7.3;;
36833;SDS011;48003;52.084;5.224;2023-05-07T12:11:14;9.9;;;8.0;;
36833;SDS011;48003;52.084;5.224;2023-05-07T12:12:52;11.1;;;8.6;;
36833;SDS011;48003;52.084;5.224;2023-05-07T12:16:05;10.4;;;8.71;;
36833;SDS011;48003;52.084;5.224;2023-05-07T12:17:42;10.4;;;7.7;;
36833;SDS011;48003;52.084;5.224;2023-05-07T12:19:19;9.5;;;7.9;;
36833;SDS011;48003;52.084;5.224;2023-05-07T12:20:56;11.9;;;9.21;;
36833;SDS011;48003;52.084;5.224;2023-05-07T12:24:13;10.0;;;6.8;;
36833;SDS011;48003;52.084;5.224;2023-05-07T12:25:50;9.4;;;7.4;;
36833;SDS011;48003;52.084;5.224;2023-05-07T12:27:27;10.21;;;6.5;;
36833;SDS011;48003;52.084;5.224;2023-05-07T12:30:40;8.81;;;6.4;;
36833;SDS011;48003;52.084;5.224;2023-05-07T12:32:19;10.6;;;8.0;;
36833;SDS011;48003;52.084;5.224;2023-05-07T12:33:58;10.6;;;8.0;;
36833;SDS011;48003;52.084;5.224;2023-05-07T12:35:36;12.0;;;8.81;;
36833;SDS011;48003;52.084;5.224;2023-05-07T12:38:53;10.7;;;8.31;;
36833;SDS011;48003;52.084;5.224;2023-05-07T12:40:38;9.81;;;6.7;;
36833;SDS011;48003;52.084;5.224;2023-05-07T12:42:15;7.5;;;5.0;;
36833;SDS011;48003;52.084;5.224;2023-05-07T12:43:55;6.0;;;4.1;;
36833;SDS011;48003;52.084;5.224;2023-05-07T12:47:14;7.3;;;5.11;;